Time;durP1;ratioP1;P1;durP2;ratioP2;P2;SDS_P1;SDS_P2;PMS_P1;PMS_P2;Temp;Humidity;BMP_temperature;BMP_pressure;BME280_temperature;BME280_humidity;BME280_pressure;Samples;Min_cycle;Max_cycle;Signal;HPM_P1;HPM_P2
2022/10/16 00:00:54;;;;;;;0.88;0.52;;;;;;;;;;5064612;28;20080;-80
2022/10/16 00:03:22;;;;;;;0.82;0.50;;;;;;;;;;5065514;28;20041;-80
2022/10/16 00:06:00;;;;;;;1.50;0.32;;;;;;;;;;5072874;28;20105;-80
2022/10/16 00:08:28;;;;;;;0.80;0.45;;;;;;;;;;5057111;28;20056;-81
2022/10/16 00:11:00;;;;;;;1.30;0.50;;;;;;;;;;5061321;28;20053;-80
2022/10/16 00:13:28;;;;;;;0.52;0.47;;;;;;;;;;5070474;28;20087;-81
2022/10/16 00:15:57;;;;;;;1.63;0.82;;;;;;;;;;5068065;28;20044;-80
2022/10/16 00:18:26;;;;;;;0.40;0.38;;;;;;;;;;5058389;28;20048;-80
2022/10/16 00:20:54;;;;;;;1.20;0.52;;;;;;;;;;5071264;28;20111;-80
2022/10/16 00:23:29;;;;;;;0.25;0.17;;;;;;;;;;5069017;28;20049;-80
2022/10/16 00:25:57;;;;;;;0.20;0.20;;;;;;;;;;5059834;28;20045;-80
2022/10/16 00:28:25;;;;;;;1.05;0.52;;;;;;;;;;5068300;28;20049;-80
2022/10/16 00:30:54;;;;;;;0.98;0.43;;;;;;;;;;5058635;28;20053;-80
2022/10/16 00:33:23;;;;;;;0.40;0.40;;;;;;;;;;5069558;28;20545;-80
2022/10/16 00:35:51;;;;;;;0.70;0.43;;;;;;;;;;5067752;28;20090;-80
2022/10/16 00:38:19;;;;;;;0.30;0.30;;;;;;;;;;5060410;28;20053;-81
2022/10/16 00:40:49;;;;;;;0.30;0.30;;;;;;;;;;5079168;28;20063;-80
2022/10/16 00:43:32;;;;;;;1.67;0.40;;;;;;;;;;5070537;28;20057;-81
2022/10/16 00:46:01;;;;;;;1.10;0.52;;;;;;;;;;5068404;28;20368;-80
2022/10/16 00:48:29;;;;;;;0.30;0.30;;;;;;;;;;5074394;28;20040;-80
2022/10/16 00:50:58;;;;;;;1.52;0.30;;;;;;;;;;5057076;28;20053;-80
2022/10/16 00:53:26;;;;;;;0.43;0.43;;;;;;;;;;5069773;28;20428;-80
2022/10/16 00:55:56;;;;;;;0.77;0.45;;;;;;;;;;5075066;28;20045;-81
2022/10/16 00:58:24;;;;;;;0.28;0.22;;;;;;;;;;5071494;28;20048;-80
2022/10/16 01:00:53;;;;;;;1.75;0.70;;;;;;;;;;5077385;28;20056;-81
2022/10/16 01:03:25;;;;;;;0.40;0.40;;;;;;;;;;5072041;28;20048;-80
2022/10/16 01:05:57;;;;;;;0.32;0.32;;;;;;;;;;5070295;28;20484;-80
2022/10/16 01:08:30;;;;;;;0.88;0.50;;;;;;;;;;5064064;28;20048;-80
2022/10/16 01:11:07;;;;;;;1.30;0.43;;;;;;;;;;5069919;28;20048;-80
2022/10/16 01:13:37;;;;;;;0.38;0.25;;;;;;;;;;5069128;28;20048;-80
2022/10/16 01:16:09;;;;;;;0.30;0.17;;;;;;;;;;5071452;28;20052;-80
2022/10/16 01:18:40;;;;;;;1.65;0.40;;;;;;;;;;5064212;28;20453;-80
2022/10/16 01:21:11;;;;;;;2.45;0.50;;;;;;;;;;5066011;28;20051;-80
2022/10/16 01:23:44;;;;;;;0.93;0.30;;;;;;;;;;5068104;28;20040;-81
2022/10/16 01:26:19;;;;;;;0.98;0.40;;;;;;;;;;5070390;28;20057;-80
2022/10/16 01:28:51;;;;;;;0.82;0.60;;;;;;;;;;5085844;28;20074;-80
2022/10/16 01:31:21;;;;;;;0.32;0.25;;;;;;;;;;5075785;28;20087;-81
2022/10/16 01:33:53;;;;;;;0.20;0.20;;;;;;;;;;5066949;28;20040;-80
2022/10/16 01:36:29;;;;;;;0.20;0.20;;;;;;;;;;5067414;28;20071;-81
2022/10/16 01:39:01;;;;;;;0.50;0.30;;;;;;;;;;5068122;28;20067;-81
2022/10/16 01:41:31;;;;;;;0.55;0.20;;;;;;;;;;5060916;28;20052;-80
2022/10/16 01:44:04;;;;;;;0.38;0.35;;;;;;;;;;5067286;28;20044;-80
2022/10/16 01:46:33;;;;;;;0.30;0.30;;;;;;;;;;5064940;28;20059;-80
2022/10/16 01:49:02;;;;;;;1.17;0.32;;;;;;;;;;5071732;28;20063;-80
2022/10/16 01:51:31;;;;;;;0.35;0.30;;;;;;;;;;5063934;28;20060;-80
2022/10/16 01:54:01;;;;;;;0.38;0.28;;;;;;;;;;5065129;28;20078;-80
2022/10/16 01:56:30;;;;;;;1.08;0.43;;;;;;;;;;5065327;28;20056;-81
2022/10/16 01:59:01;;;;;;;0.88;0.40;;;;;;;;;;5066180;28;20095;-80
2022/10/16 02:01:32;;;;;;;0.30;0.25;;;;;;;;;;5067696;28;20553;-80
2022/10/16 02:04:03;;;;;;;0.10;0.10;;;;;;;;;;5072850;28;20037;-82
2022/10/16 02:06:31;;;;;;;0.28;0.20;;;;;;;;;;5066027;28;20110;-80
2022/10/16 02:09:00;;;;;;;0.30;0.30;;;;;;;;;;5066189;28;20048;-80
2022/10/16 02:11:28;;;;;;;0.43;0.30;;;;;;;;;;5084227;28;20051;-80
2022/10/16 02:14:00;;;;;;;0.10;0.10;;;;;;;;;;5065985;28;20060;-80
2022/10/16 02:16:35;;;;;;;0.57;0.43;;;;;;;;;;5055875;28;20048;-80
2022/10/16 02:19:04;;;;;;;1.80;0.40;;;;;;;;;;5060715;28;20044;-80
2022/10/16 02:21:38;;;;;;;0.25;0.20;;;;;;;;;;5065819;28;20056;-80
2022/10/16 02:24:09;;;;;;;0.17;0.17;;;;;;;;;;5066053;28;20044;-82
2022/10/16 02:26:41;;;;;;;0.22;0.20;;;;;;;;;;5064870;28;20048;-80
2022/10/16 02:29:11;;;;;;;0.17;0.17;;;;;;;;;;5064204;28;20070;-80
2022/10/16 02:31:43;;;;;;;0.40;0.28;;;;;;;;;;5071574;28;20044;-80
2022/10/16 02:34:12;;;;;;;0.30;0.30;;;;;;;;;;5070469;28;20048;-81
2022/10/16 02:36:41;;;;;;;0.93;0.32;;;;;;;;;;5064292;28;20067;-80
2022/10/16 02:39:10;;;;;;;0.52;0.20;;;;;;;;;;5072448;28;20056;-80
2022/10/16 02:41:38;;;;;;;0.20;0.20;;;;;;;;;;5062353;28;20049;-80
2022/10/16 02:44:06;;;;;;;0.40;0.40;;;;;;;;;;5050393;28;20063;-80
2022/10/16 02:46:35;;;;;;;0.25;0.10;;;;;;;;;;5040367;28;20048;-80
2022/10/16 02:49:04;;;;;;;0.30;0.20;;;;;;;;;;5043122;28;20037;-80
2022/10/16 02:51:33;;;;;;;0.95;0.43;;;;;;;;;;5040657;28;20493;-80
2022/10/16 02:54:01;;;;;;;0.60;0.50;;;;;;;;;;5033630;28;20045;-80
2022/10/16 02:56:29;;;;;;;0.20;0.20;;;;;;;;;;5042695;28;20060;-80
2022/10/16 02:58:58;;;;;;;0.47;0.30;;;;;;;;;;5051357;28;20053;-80
2022/10/16 03:01:26;;;;;;;0.15;0.15;;;;;;;;;;5045685;28;20075;-80
2022/10/16 03:03:54;;;;;;;2.15;0.40;;;;;;;;;;5040750;28;20044;-81
2022/10/16 03:06:24;;;;;;;0.13;0.13;;;;;;;;;;5049601;28;20041;-80
2022/10/16 03:08:52;;;;;;;0.20;0.20;;;;;;;;;;5042687;28;20059;-81
2022/10/16 03:11:20;;;;;;;0.55;0.35;;;;;;;;;;5041117;28;20049;-80
2022/10/16 03:13:49;;;;;;;0.43;0.38;;;;;;;;;;5041724;28;20045;-80
2022/10/16 03:16:17;;;;;;;0.30;0.30;;;;;;;;;;5040992;28;20044;-81
2022/10/16 03:18:49;;;;;;;0.13;0.13;;;;;;;;;;5042573;28;20064;-80
2022/10/16 03:21:17;;;;;;;0.65;0.45;;;;;;;;;;5043178;28;20061;-80
2022/10/16 03:23:47;;;;;;;1.80;0.30;;;;;;;;;;5046298;28;20474;-80
2022/10/16 03:26:16;;;;;;;0.35;0.35;;;;;;;;;;5038712;28;20041;-80
2022/10/16 03:28:44;;;;;;;0.25;0.22;;;;;;;;;;5045935;28;20094;-80
2022/10/16 03:31:12;;;;;;;2.65;0.65;;;;;;;;;;5042347;28;20045;-80
2022/10/16 03:33:40;;;;;;;0.20;0.20;;;;;;;;;;5040883;28;20045;-80
2022/10/16 03:36:09;;;;;;;0.20;0.20;;;;;;;;;;5034339;28;20049;-80
2022/10/16 03:38:37;;;;;;;1.85;0.40;;;;;;;;;;5046134;28;20487;-80
2022/10/16 03:41:07;;;;;;;0.20;0.20;;;;;;;;;;5034868;28;20068;-80
2022/10/16 03:43:35;;;;;;;0.38;0.38;;;;;;;;;;5055881;28;20056;-80
2022/10/16 03:46:04;;;;;;;1.13;0.60;;;;;;;;;;5064183;28;20074;-80
2022/10/16 03:48:32;;;;;;;0.80;0.25;;;;;;;;;;5067961;28;20040;-80
2022/10/16 03:51:00;;;;;;;0.25;0.25;;;;;;;;;;5064269;28;20048;-80
2022/10/16 03:53:29;;;;;;;0.10;0.10;;;;;;;;;;5067507;28;20043;-82
2022/10/16 03:55:58;;;;;;;0.35;0.30;;;;;;;;;;5065417;28;20053;-80
2022/10/16 03:58:27;;;;;;;0.35;0.30;;;;;;;;;;5061544;28;20049;-80
2022/10/16 04:00:55;;;;;;;0.80;0.30;;;;;;;;;;5063119;28;20076;-80
2022/10/16 04:03:24;;;;;;;0.20;0.20;;;;;;;;;;5068761;28;20045;-80
2022/10/16 04:05:52;;;;;;;0.30;0.30;;;;;;;;;;5071775;28;20044;-81
2022/10/16 04:08:20;;;;;;;0.10;0.10;;;;;;;;;;5064643;28;20385;-80
2022/10/16 04:10:49;;;;;;;0.80;0.40;;;;;;;;;;5068597;28;20052;-80
2022/10/16 04:13:17;;;;;;;0.63;0.50;;;;;;;;;;5068131;28;20058;-80
2022/10/16 04:15:48;;;;;;;0.88;0.25;;;;;;;;;;5065220;28;20052;-80
2022/10/16 04:18:16;;;;;;;0.32;0.22;;;;;;;;;;5076281;28;20487;-81
2022/10/16 04:20:44;;;;;;;0.40;0.25;;;;;;;;;;5067592;28;20041;-80
2022/10/16 04:23:13;;;;;;;0.40;0.35;;;;;;;;;;5067498;28;20566;-80
2022/10/16 04:25:41;;;;;;;1.08;0.28;;;;;;;;;;5074329;28;20056;-80
2022/10/16 04:28:09;;;;;;;1.10;0.57;;;;;;;;;;5071926;28;20044;-80
2022/10/16 04:30:39;;;;;;;0.70;0.30;;;;;;;;;;5071478;28;20405;-80
2022/10/16 04:33:10;;;;;;;0.17;0.17;;;;;;;;;;5064520;28;20048;-81
2022/10/16 04:35:38;;;;;;;0.40;0.40;;;;;;;;;;5063719;28;20052;-82
2022/10/16 04:38:06;;;;;;;0.10;0.10;;;;;;;;;;5060597;28;20338;-80
2022/10/16 04:40:36;;;;;;;2.15;0.30;;;;;;;;;;5068991;28;20369;-80
2022/10/16 04:43:04;;;;;;;0.45;0.35;;;;;;;;;;5068282;28;20051;-80
2022/10/16 04:45:32;;;;;;;0.50;0.22;;;;;;;;;;5068200;28;20040;-80
2022/10/16 04:48:01;;;;;;;0.32;0.20;;;;;;;;;;5073119;28;20055;-80
2022/10/16 04:50:31;;;;;;;0.30;0.30;;;;;;;;;;5062779;28;20048;-80
2022/10/16 04:52:59;;;;;;;0.20;0.20;;;;;;;;;;5077806;28;20044;-80
2022/10/16 04:55:27;;;;;;;0.85;0.20;;;;;;;;;;5068882;28;20044;-80
2022/10/16 04:57:55;;;;;;;0.50;0.30;;;;;;;;;;5076239;28;20045;-80
2022/10/16 05:00:24;;;;;;;3.30;0.20;;;;;;;;;;5069967;28;20048;-81
2022/10/16 05:02:52;;;;;;;0.30;0.30;;;;;;;;;;5063637;28;20386;-80
2022/10/16 05:05:20;;;;;;;0.10;0.10;;;;;;;;;;5062948;28;20137;-80
2022/10/16 05:07:50;;;;;;;0.20;0.20;;;;;;;;;;5076145;28;20052;-80
2022/10/16 05:10:18;;;;;;;0.32;0.20;;;;;;;;;;5069660;28;20052;-80
2022/10/16 05:12:47;;;;;;;0.47;0.32;;;;;;;;;;5080745;28;20044;-81
2022/10/16 05:15:15;;;;;;;0.32;0.20;;;;;;;;;;5069985;28;20052;-80
2022/10/16 05:17:43;;;;;;;2.70;0.68;;;;;;;;;;5070120;28;20032;-80
2022/10/16 05:20:12;;;;;;;1.10;0.57;;;;;;;;;;5067065;28;20055;-80
2022/10/16 05:22:40;;;;;;;1.65;0.60;;;;;;;;;;5066981;28;20048;-80
2022/10/16 05:25:10;;;;;;;1.13;0.80;;;;;;;;;;5068648;28;20079;-80
2022/10/16 05:27:38;;;;;;;0.82;0.43;;;;;;;;;;5071426;28;20480;-80
2022/10/16 05:30:07;;;;;;;0.77;0.50;;;;;;;;;;5073500;28;20056;-80
2022/10/16 05:32:39;;;;;;;1.23;0.90;;;;;;;;;;5071991;28;20048;-80
2022/10/16 05:35:08;;;;;;;0.82;0.40;;;;;;;;;;5073027;28;20488;-81
2022/10/16 05:37:39;;;;;;;1.27;0.30;;;;;;;;;;5067281;28;20051;-79
2022/10/16 05:40:10;;;;;;;0.22;0.22;;;;;;;;;;5066054;28;20060;-82
2022/10/16 05:42:38;;;;;;;1.58;0.50;;;;;;;;;;5068529;28;20083;-80
2022/10/16 05:45:07;;;;;;;0.30;0.30;;;;;;;;;;5062947;28;20562;-80
2022/10/16 05:47:36;;;;;;;0.20;0.20;;;;;;;;;;5070359;28;20405;-82
2022/10/16 05:50:05;;;;;;;1.52;0.60;;;;;;;;;;5062409;28;20125;-80
2022/10/16 05:52:33;;;;;;;1.25;0.35;;;;;;;;;;5068529;28;20060;-81
2022/10/16 05:55:01;;;;;;;0.20;0.20;;;;;;;;;;5072406;28;20049;-81
2022/10/16 05:57:31;;;;;;;0.10;0.10;;;;;;;;;;5065277;28;20049;-81
2022/10/16 05:59:59;;;;;;;0.52;0.35;;;;;;;;;;5067079;28;20036;-81
2022/10/16 06:02:28;;;;;;;1.13;0.50;;;;;;;;;;5069457;28;20573;-81
2022/10/16 06:04:56;;;;;;;0.57;0.47;;;;;;;;;;5070499;28;20492;-80
2022/10/16 06:07:25;;;;;;;0.25;0.25;;;;;;;;;;5071438;28;20048;-80
2022/10/16 06:09:54;;;;;;;0.30;0.30;;;;;;;;;;5068821;28;20048;-81
2022/10/16 06:12:22;;;;;;;0.10;0.10;;;;;;;;;;5061607;28;20089;-80
2022/10/16 06:14:52;;;;;;;0.20;0.20;;;;;;;;;;5067879;28;20055;-81
2022/10/16 06:17:20;;;;;;;0.35;0.30;;;;;;;;;;5058966;28;20512;-80
2022/10/16 06:19:48;;;;;;;1.10;0.40;;;;;;;;;;5065490;28;20045;-82
2022/10/16 06:22:17;;;;;;;0.20;0.20;;;;;;;;;;5056085;28;20044;-81
2022/10/16 06:24:46;;;;;;;0.65;0.20;;;;;;;;;;5064274;28;20411;-81
2022/10/16 06:27:14;;;;;;;0.40;0.30;;;;;;;;;;5063645;28;20060;-81
2022/10/16 06:29:43;;;;;;;0.73;0.40;;;;;;;;;;5066491;28;20040;-81
2022/10/16 06:32:13;;;;;;;0.30;0.20;;;;;;;;;;5054840;28;20051;-81
2022/10/16 06:34:41;;;;;;;6.80;0.65;;;;;;;;;;5064776;28;20044;-82
2022/10/16 06:37:11;;;;;;;0.10;0.10;;;;;;;;;;5065966;28;20067;-81
2022/10/16 06:39:39;;;;;;;1.75;0.30;;;;;;;;;;5062047;28;20060;-82
2022/10/16 06:42:07;;;;;;;2.42;0.63;;;;;;;;;;5056620;28;20048;-81
2022/10/16 06:44:36;;;;;;;0.82;0.35;;;;;;;;;;5056284;28;20499;-85
2022/10/16 06:47:04;;;;;;;3.92;0.20;;;;;;;;;;5055805;28;20404;-85
2022/10/16 06:49:34;;;;;;;0.38;0.20;;;;;;;;;;5060807;28;20056;-85
2022/10/16 06:52:02;;;;;;;0.63;0.30;;;;;;;;;;5050429;28;20048;-85
2022/10/16 06:54:31;;;;;;;0.13;0.13;;;;;;;;;;5057976;28;20060;-85
2022/10/16 06:57:09;;;;;;;0.30;0.25;;;;;;;;;;5064887;28;20127;-87
2022/10/16 06:59:37;;;;;;;0.30;0.30;;;;;;;;;;5069188;28;20074;-85
2022/10/16 07:02:06;;;;;;;0.30;0.30;;;;;;;;;;5059359;28;20419;-85
2022/10/16 07:04:37;;;;;;;1.10;0.55;;;;;;;;;;5057729;28;20322;-88
2022/10/16 07:07:05;;;;;;;0.32;0.17;;;;;;;;;;5060846;28;20054;-84
2022/10/16 07:09:36;;;;;;;0.20;0.20;;;;;;;;;;5060012;28;20500;-84
2022/10/16 07:12:05;;;;;;;0.25;0.20;;;;;;;;;;5060943;28;20732;-85
2022/10/16 07:14:33;;;;;;;0.93;0.38;;;;;;;;;;5077021;28;20067;-87
2022/10/16 07:17:01;;;;;;;1.38;0.55;;;;;;;;;;5067698;28;20500;-85
2022/10/16 07:19:30;;;;;;;0.43;0.40;;;;;;;;;;5065072;28;20403;-85
2022/10/16 07:22:03;;;;;;;0.88;0.40;;;;;;;;;;5061609;28;20066;-85
2022/10/16 07:24:31;;;;;;;1.17;0.35;;;;;;;;;;5068649;28;20056;-85
2022/10/16 07:26:59;;;;;;;0.30;0.30;;;;;;;;;;5063519;28;20677;-85
2022/10/16 07:29:28;;;;;;;1.30;0.47;;;;;;;;;;5070156;28;20044;-85
2022/10/16 07:31:56;;;;;;;0.73;0.40;;;;;;;;;;5058388;28;20079;-85
2022/10/16 07:34:25;;;;;;;0.22;0.22;;;;;;;;;;5069577;28;20412;-85
2022/10/16 07:36:54;;;;;;;0.95;0.70;;;;;;;;;;5072079;28;20055;-85
2022/10/16 07:39:23;;;;;;;0.95;0.50;;;;;;;;;;5063514;28;20045;-85
2022/10/16 07:41:52;;;;;;;0.20;0.20;;;;;;;;;;5061760;28;20056;-85
2022/10/16 07:44:20;;;;;;;0.30;0.30;;;;;;;;;;5062560;28;20061;-85
2022/10/16 07:46:48;;;;;;;1.17;0.63;;;;;;;;;;5062765;28;20304;-85
2022/10/16 07:49:16;;;;;;;0.40;0.32;;;;;;;;;;5075353;28;20052;-85
2022/10/16 07:51:45;;;;;;;1.58;0.63;;;;;;;;;;5068665;28;20053;-86
2022/10/16 07:54:13;;;;;;;0.20;0.20;;;;;;;;;;5066102;28;20106;-85
2022/10/16 07:56:43;;;;;;;0.45;0.38;;;;;;;;;;5061367;28;20049;-85
2022/10/16 07:59:11;;;;;;;0.73;0.40;;;;;;;;;;5065444;28;20389;-85
2022/10/16 08:01:39;;;;;;;1.05;0.32;;;;;;;;;;5062212;28;20534;-85
2022/10/16 08:04:08;;;;;;;0.55;0.30;;;;;;;;;;5065846;28;20754;-84
2022/10/16 08:06:37;;;;;;;0.40;0.32;;;;;;;;;;5067095;28;20053;-86
2022/10/16 08:09:05;;;;;;;1.73;0.68;;;;;;;;;;5059660;28;20040;-85
2022/10/16 08:11:33;;;;;;;1.65;0.30;;;;;;;;;;5066408;28;20040;-85
2022/10/16 08:14:03;;;;;;;0.50;0.50;;;;;;;;;;5052925;28;20143;-85
2022/10/16 08:16:31;;;;;;;1.88;0.40;;;;;;;;;;5057594;28;20049;-85
2022/10/16 08:19:00;;;;;;;0.45;0.45;;;;;;;;;;5060667;28;20071;-86
2022/10/16 08:21:28;;;;;;;1.05;0.60;;;;;;;;;;5074216;28;20048;-86
2022/10/16 08:23:56;;;;;;;1.45;0.85;;;;;;;;;;5073691;28;20048;-84
2022/10/16 08:26:26;;;;;;;0.35;0.35;;;;;;;;;;5073345;28;20142;-84
2022/10/16 08:28:55;;;;;;;0.30;0.30;;;;;;;;;;5065416;28;20090;-84
2022/10/16 08:31:25;;;;;;;1.10;0.50;;;;;;;;;;5057445;28;20049;-84
2022/10/16 08:33:54;;;;;;;1.30;0.60;;;;;;;;;;5066862;28;20048;-84
2022/10/16 08:36:23;;;;;;;0.35;0.30;;;;;;;;;;5070110;28;20525;-84
2022/10/16 08:38:53;;;;;;;0.40;0.40;;;;;;;;;;5070546;28;20049;-84
2022/10/16 08:44:53;;;;;;;0.85;0.60;;;;;;;;;;5068142;28;20467;-84
2022/10/16 08:47:24;;;;;;;0.52;0.50;;;;;;;;;;5060020;28;20049;-84
2022/10/16 08:49:57;;;;;;;0.73;0.40;;;;;;;;;;5069617;28;20061;-84
2022/10/16 08:52:27;;;;;;;4.78;0.95;;;;;;;;;;5066649;28;20475;-84
2022/10/16 08:54:57;;;;;;;0.95;0.40;;;;;;;;;;5056608;28;20048;-84
2022/10/16 08:57:27;;;;;;;0.45;0.40;;;;;;;;;;5058949;28;20403;-84
2022/10/16 08:59:59;;;;;;;0.90;0.50;;;;;;;;;;5057358;28;20049;-84
2022/10/16 09:02:40;;;;;;;1.83;0.57;;;;;;;;;;5074232;28;20481;-84
2022/10/16 09:05:23;;;;;;;1.08;0.65;;;;;;;;;;5067011;28;20056;-84
2022/10/16 09:07:57;;;;;;;0.93;0.25;;;;;;;;;;5064496;28;20523;-84
2022/10/16 09:10:36;;;;;;;1.10;0.55;;;;;;;;;;5046104;28;20098;-84
2022/10/16 09:13:11;;;;;;;0.85;0.82;;;;;;;;;;5074045;28;20048;-84
2022/10/16 09:15:44;;;;;;;0.43;0.43;;;;;;;;;;5074682;28;20428;-85
2022/10/16 09:18:17;;;;;;;1.00;0.45;;;;;;;;;;5068580;28;20068;-84
2022/10/16 09:20:49;;;;;;;0.20;0.10;;;;;;;;;;5068649;28;20053;-84
2022/10/16 09:23:19;;;;;;;0.68;0.40;;;;;;;;;;5067505;28;20053;-84
2022/10/16 09:25:48;;;;;;;0.20;0.20;;;;;;;;;;5070296;28;20052;-83
2022/10/16 09:28:17;;;;;;;0.70;0.40;;;;;;;;;;5073759;28;20076;-84
2022/10/16 09:30:48;;;;;;;0.90;0.50;;;;;;;;;;5072961;28;20413;-85
2022/10/16 09:33:18;;;;;;;0.70;0.60;;;;;;;;;;5073904;28;20049;-85
2022/10/16 09:35:48;;;;;;;0.32;0.20;;;;;;;;;;5073707;28;20048;-86
2022/10/16 09:38:25;;;;;;;0.88;0.40;;;;;;;;;;5071432;28;20056;-85
2022/10/16 09:40:54;;;;;;;0.20;0.20;;;;;;;;;;5068070;28;20059;-85
2022/10/16 09:43:35;;;;;;;1.08;0.40;;;;;;;;;;5072597;28;20419;-85
2022/10/16 09:46:04;;;;;;;0.45;0.45;;;;;;;;;;5061317;28;20110;-85
2022/10/16 09:48:38;;;;;;;0.47;0.40;;;;;;;;;;5059447;28;20051;-85
2022/10/16 09:51:17;;;;;;;0.47;0.40;;;;;;;;;;5060054;28;20128;-86
2022/10/16 09:53:46;;;;;;;0.52;0.32;;;;;;;;;;5070536;28;20055;-86
2022/10/16 09:56:23;;;;;;;0.57;0.25;;;;;;;;;;5067971;28;20143;-86
2022/10/16 09:58:52;;;;;;;0.75;0.30;;;;;;;;;;5066512;28;20076;-86
2022/10/16 10:01:21;;;;;;;0.95;0.45;;;;;;;;;;5066259;28;20049;-86
2022/10/16 10:03:52;;;;;;;0.38;0.22;;;;;;;;;;5060614;28;20389;-86
2022/10/16 10:06:24;;;;;;;0.73;0.50;;;;;;;;;;5055851;28;20053;-87
2022/10/16 10:08:56;;;;;;;0.50;0.35;;;;;;;;;;5072033;28;20044;-86
2022/10/16 10:11:49;;;;;;;0.80;0.60;;;;;;;;;;5058061;28;20428;-86
2022/10/16 10:14:39;;;;;;;0.55;0.38;;;;;;;;;;5043759;28;20548;-86
2022/10/16 10:17:18;;;;;;;1.10;0.43;;;;;;;;;;5063992;28;20048;-86
2022/10/16 10:19:50;;;;;;;0.65;0.45;;;;;;;;;;5072992;28;20055;-86
2022/10/16 10:22:39;;;;;;;1.02;0.30;;;;;;;;;;5072755;28;20048;-86
2022/10/16 10:25:21;;;;;;;0.68;0.40;;;;;;;;;;5058354;28;20040;-84
2022/10/16 10:27:53;;;;;;;0.52;0.40;;;;;;;;;;5067204;28;20052;-85
2022/10/16 10:30:24;;;;;;;1.23;0.50;;;;;;;;;;5059069;28;20057;-85
2022/10/16 10:32:58;;;;;;;1.33;0.57;;;;;;;;;;5062372;28;20052;-85
2022/10/16 10:35:32;;;;;;;2.40;0.63;;;;;;;;;;5067130;28;20052;-86
2022/10/16 10:38:12;;;;;;;0.52;0.30;;;;;;;;;;5072248;28;20047;-87
2022/10/16 10:40:45;;;;;;;7.10;1.77;;;;;;;;;;5064894;28;20072;-87
2022/10/16 10:43:22;;;;;;;12.38;3.28;;;;;;;;;;5066797;28;20049;-87
2022/10/16 10:45:54;;;;;;;4.45;1.52;;;;;;;;;;5062770;28;20047;-86
2022/10/16 10:48:29;;;;;;;5.85;1.05;;;;;;;;;;5063137;28;20044;-86
2022/10/16 10:51:02;;;;;;;1.85;0.68;;;;;;;;;;5075906;28;20122;-86
2022/10/16 10:53:38;;;;;;;0.50;0.50;;;;;;;;;;5066702;28;20052;-85
2022/10/16 10:56:13;;;;;;;0.68;0.47;;;;;;;;;;5075790;28;20075;-86
2022/10/16 10:58:50;;;;;;;2.75;0.68;;;;;;;;;;5067060;28;20040;-86
2022/10/16 11:01:21;;;;;;;0.65;0.40;;;;;;;;;;5078425;28;20071;-85
2022/10/16 11:04:00;;;;;;;1.48;0.55;;;;;;;;;;5069349;28;20052;-85
2022/10/16 11:06:33;;;;;;;0.32;0.28;;;;;;;;;;5074301;28;20542;-84
2022/10/16 11:09:08;;;;;;;0.55;0.25;;;;;;;;;;5063524;28;20472;-87
2022/10/16 11:11:40;;;;;;;0.20;0.20;;;;;;;;;;5065693;28;20040;-86
2022/10/16 11:14:12;;;;;;;0.20;0.20;;;;;;;;;;5064571;28;20056;-87
2022/10/16 11:16:44;;;;;;;0.95;0.35;;;;;;;;;;5068118;28;20451;-85
2022/10/16 11:19:16;;;;;;;1.88;0.40;;;;;;;;;;5068873;28;20055;-85
2022/10/16 11:21:50;;;;;;;0.15;0.10;;;;;;;;;;5065677;28;20074;-85
2022/10/16 11:24:23;;;;;;;0.60;0.20;;;;;;;;;;5071441;28;20052;-88
2022/10/16 11:26:52;;;;;;;0.22;0.20;;;;;;;;;;5057770;28;20048;-85
2022/10/16 11:29:24;;;;;;;0.20;0.20;;;;;;;;;;5065707;28;20480;-85
2022/10/16 11:31:56;;;;;;;0.10;0.10;;;;;;;;;;5065770;28;21701;-86
2022/10/16 11:34:27;;;;;;;0.10;0.10;;;;;;;;;;5062095;28;20404;-85
2022/10/16 11:37:03;;;;;;;0.15;0.10;;;;;;;;;;5059748;28;20075;-86
2022/10/16 11:39:32;;;;;;;1.45;0.20;;;;;;;;;;5067550;28;20052;-85
2022/10/16 11:42:02;;;;;;;0.55;0.30;;;;;;;;;;5064857;28;20492;-85
2022/10/16 11:44:39;;;;;;;0.15;0.10;;;;;;;;;;5065448;28;20079;-85
2022/10/16 11:47:13;;;;;;;0.17;0.17;;;;;;;;;;5068250;28;20044;-85
2022/10/16 11:50:03;;;;;;;2.08;0.15;;;;;;;;;;5063051;28;20041;-85
2022/10/16 11:52:38;;;;;;;0.25;0.25;;;;;;;;;;5059423;28;20052;-86
2022/10/16 11:55:11;;;;;;;0.25;0.17;;;;;;;;;;5057938;28;20056;-85
2022/10/16 11:57:42;;;;;;;0.13;0.13;;;;;;;;;;5067807;28;20083;-85
2022/10/16 12:00:12;;;;;;;0.20;0.20;;;;;;;;;;5056954;28;20045;-86
2022/10/16 12:02:45;;;;;;;0.10;0.10;;;;;;;;;;5058933;28;20044;-87
2022/10/16 12:05:20;;;;;;;0.10;0.10;;;;;;;;;;5064401;28;20053;-84
2022/10/16 12:07:53;;;;;;;2.80;0.32;;;;;;;;;;5066253;28;20049;-84
2022/10/16 12:10:22;;;;;;;0.30;0.20;;;;;;;;;;5066465;28;20057;-84
2022/10/16 12:12:56;;;;;;;0.20;0.13;;;;;;;;;;5060047;28;20044;-85
2022/10/16 12:15:26;;;;;;;0.00;0.00;;;;;;;;;;5071690;28;20048;-89
2022/10/16 12:18:22;;;;;;;0.73;0.32;;;;;;;;;;5057500;28;20044;-84
2022/10/16 12:21:00;;;;;;;2.83;0.13;;;;;;;;;;5065578;28;20523;-85
2022/10/16 12:23:30;;;;;;;0.00;0.00;;;;;;;;;;5071871;28;20059;-85
2022/10/16 12:25:59;;;;;;;0.40;0.20;;;;;;;;;;5060801;28;20546;-87
2022/10/16 12:28:29;;;;;;;0.20;0.10;;;;;;;;;;5063142;28;20472;-84
2022/10/16 12:30:59;;;;;;;0.10;0.10;;;;;;;;;;5065292;28;20044;-84
2022/10/16 12:33:28;;;;;;;0.38;0.25;;;;;;;;;;5065436;28;20072;-84
2022/10/16 12:35:57;;;;;;;1.00;0.30;;;;;;;;;;5057555;28;20420;-84
2022/10/16 12:38:28;;;;;;;9.05;0.63;;;;;;;;;;5081378;28;20047;-84
2022/10/16 12:40:59;;;;;;;3.17;0.50;;;;;;;;;;5067797;28;20044;-84
2022/10/16 12:43:29;;;;;;;1.52;0.20;;;;;;;;;;5069375;28;20254;-85
2022/10/16 12:46:02;;;;;;;0.30;0.20;;;;;;;;;;5073495;28;20049;-85
2022/10/16 12:48:31;;;;;;;0.52;0.30;;;;;;;;;;5065737;28;20076;-86
2022/10/16 12:51:24;;;;;;;0.22;0.22;;;;;;;;;;5066215;28;20123;-88
2022/10/16 12:54:02;;;;;;;0.10;0.10;;;;;;;;;;5076556;28;20667;-88
2022/10/16 12:56:39;;;;;;;0.17;0.17;;;;;;;;;;5064471;28;20501;-85
2022/10/16 12:59:11;;;;;;;0.57;0.30;;;;;;;;;;5061804;28;20122;-86
2022/10/16 13:01:44;;;;;;;4.80;0.17;;;;;;;;;;5062847;28;20045;-86
2022/10/16 13:04:22;;;;;;;0.30;0.30;;;;;;;;;;5071439;28;20051;-84
2022/10/16 13:06:54;;;;;;;0.88;0.30;;;;;;;;;;5066753;28;20057;-84
2022/10/16 13:09:30;;;;;;;0.43;0.30;;;;;;;;;;5063953;28;20071;-84
2022/10/16 13:12:09;;;;;;;0.65;0.47;;;;;;;;;;5066030;28;20486;-83
2022/10/16 13:14:47;;;;;;;0.10;0.10;;;;;;;;;;5066826;28;20044;-83
2022/10/16 13:17:20;;;;;;;3.72;0.40;;;;;;;;;;5067441;28;20053;-84
2022/10/16 13:19:56;;;;;;;0.20;0.10;;;;;;;;;;5064529;28;20047;-85
2022/10/16 13:22:26;;;;;;;0.20;0.20;;;;;;;;;;5060801;28;20041;-84
2022/10/16 13:25:03;;;;;;;0.10;0.10;;;;;;;;;;5069795;28;20048;-84
2022/10/16 13:27:44;;;;;;;0.40;0.30;;;;;;;;;;5073690;28;20052;-83
2022/10/16 13:30:23;;;;;;;0.10;0.10;;;;;;;;;;5072319;28;20057;-85
2022/10/16 13:33:00;;;;;;;0.10;0.10;;;;;;;;;;5072182;28;20060;-85
2022/10/16 13:35:29;;;;;;;0.47;0.40;;;;;;;;;;5070096;28;20059;-84
2022/10/16 13:38:06;;;;;;;0.30;0.28;;;;;;;;;;5061820;28;20045;-84
2022/10/16 13:40:34;;;;;;;0.50;0.35;;;;;;;;;;5070675;28;20053;-84
2022/10/16 13:43:04;;;;;;;0.10;0.10;;;;;;;;;;5064257;28;20399;-84
2022/10/16 13:45:33;;;;;;;0.55;0.15;;;;;;;;;;5071669;28;20053;-84
2022/10/16 13:48:04;;;;;;;0.43;0.30;;;;;;;;;;5072341;28;20052;-84
2022/10/16 13:50:33;;;;;;;0.57;0.30;;;;;;;;;;5066585;28;20512;-86
2022/10/16 13:53:05;;;;;;;0.10;0.10;;;;;;;;;;5064699;28;20048;-84
2022/10/16 13:55:34;;;;;;;2.20;0.47;;;;;;;;;;5072482;28;20472;-84
2022/10/16 13:58:13;;;;;;;0.45;0.20;;;;;;;;;;5069460;28;20049;-84
2022/10/16 14:00:42;;;;;;;0.17;0.10;;;;;;;;;;5072367;28;20044;-84
2022/10/16 14:03:15;;;;;;;2.22;0.20;;;;;;;;;;5065831;28;20100;-84
2022/10/16 14:05:46;;;;;;;0.57;0.30;;;;;;;;;;5076307;28;20055;-89
2022/10/16 14:08:14;;;;;;;0.32;0.28;;;;;;;;;;5065909;28;20423;-89
2022/10/16 14:10:43;;;;;;;0.95;0.20;;;;;;;;;;5074383;28;20051;-85
2022/10/16 14:13:22;;;;;;;1.02;0.32;;;;;;;;;;5072360;28;20407;-89
2022/10/16 14:15:54;;;;;;;0.13;0.10;;;;;;;;;;5075224;28;20052;-88
2022/10/16 14:18:23;;;;;;;0.20;0.20;;;;;;;;;;5075337;28;20523;-88
2022/10/16 14:20:52;;;;;;;0.10;0.10;;;;;;;;;;5055702;28;20063;-87
2022/10/16 14:23:26;;;;;;;0.68;0.20;;;;;;;;;;5064173;28;20049;-87
2022/10/16 14:25:54;;;;;;;0.20;0.10;;;;;;;;;;5071052;28;20048;-87
2022/10/16 14:28:24;;;;;;;0.95;0.40;;;;;;;;;;5066165;28;20044;-86
2022/10/16 14:30:54;;;;;;;0.38;0.20;;;;;;;;;;5065717;28;20051;-87
2022/10/16 14:33:24;;;;;;;0.30;0.20;;;;;;;;;;5069061;28;20059;-86
2022/10/16 14:36:04;;;;;;;0.20;0.20;;;;;;;;;;5068967;28;20488;-86
2022/10/16 14:38:35;;;;;;;0.17;0.10;;;;;;;;;;5067631;28;20048;-87
2022/10/16 14:41:04;;;;;;;0.85;0.30;;;;;;;;;;5067254;28;20416;-86
2022/10/16 14:43:36;;;;;;;0.10;0.10;;;;;;;;;;5063997;28;20051;-87
2022/10/16 14:46:06;;;;;;;1.25;0.40;;;;;;;;;;5049349;28;20480;-87
2022/10/16 14:48:35;;;;;;;0.20;0.20;;;;;;;;;;5067474;28;20076;-86
2022/10/16 14:51:06;;;;;;;1.40;0.40;;;;;;;;;;5052042;28;20044;-86
2022/10/16 14:53:39;;;;;;;0.20;0.13;;;;;;;;;;5065359;28;20064;-87
2022/10/16 14:56:09;;;;;;;0.20;0.20;;;;;;;;;;5060489;28;20041;-87
2022/10/16 14:58:39;;;;;;;0.20;0.10;;;;;;;;;;5072017;28;20591;-86
2022/10/16 15:01:10;;;;;;;0.20;0.20;;;;;;;;;;5072278;28;20059;-86
2022/10/16 15:03:39;;;;;;;0.93;0.20;;;;;;;;;;5077009;28;20070;-85
2022/10/16 15:06:11;;;;;;;1.35;0.20;;;;;;;;;;5078083;28;20075;-86
2022/10/16 15:08:42;;;;;;;0.20;0.20;;;;;;;;;;5069320;28;20072;-87